createdAt,value
2023-01-11T00:03:49.176Z,10.80
2023-01-11T00:13:54.288Z,10.80
2023-01-11T00:23:57.934Z,11.20
2023-01-11T00:34:03.190Z,11.40
2023-01-11T00:44:24.961Z,11.30
2023-01-11T00:54:30.062Z,11.40
2023-01-11T01:04:34.101Z,11.50
2023-01-11T01:14:39.270Z,11.30
2023-01-11T01:24:43.005Z,11.30
2023-01-11T01:34:48.605Z,11.30
2023-01-11T01:45:01.166Z,11.40
2023-01-11T01:55:11.229Z,11.30
2023-01-11T02:05:17.480Z,11.20
2023-01-11T02:15:24.261Z,11.00
2023-01-11T02:26:11.174Z,11.10
2023-01-11T02:36:29.213Z,11.10
2023-01-11T02:46:40.880Z,10.90
2023-01-11T02:56:50.331Z,10.50
2023-01-11T03:07:03.560Z,10.30
2023-01-11T03:17:18.869Z,10.30
2023-01-11T03:27:31.381Z,10.40
2023-01-11T03:37:40.511Z,10.30
2023-01-11T03:47:44.185Z,9.90
2023-01-11T03:57:51.918Z,10.00
2023-01-11T04:07:56.737Z,11.00
2023-01-11T04:18:05.324Z,11.00
2023-01-11T04:28:09.001Z,10.90
2023-01-11T04:38:14.198Z,10.70
2023-01-11T04:48:18.629Z,10.20
2023-01-11T04:58:23.816Z,10.00
2023-01-11T05:08:29.222Z,9.70
2023-01-11T05:18:34.233Z,9.00
2023-01-11T05:28:37.919Z,8.90
2023-01-11T05:38:43.335Z,9.20
2023-01-11T05:48:46.909Z,9.00
2023-01-11T05:58:52.869Z,9.10
2023-01-11T06:08:57.015Z,9.50
2023-01-11T06:19:02.274Z,9.30
2023-01-11T06:29:05.895Z,9.20
2023-01-11T06:39:11.975Z,10.10
2023-01-11T06:49:15.967Z,9.70
2023-01-11T06:59:21.511Z,9.20
2023-01-11T07:09:25.624Z,9.50
2023-01-11T07:19:31.000Z,9.30
2023-01-11T07:29:34.859Z,9.40
2023-01-11T07:39:43.892Z,9.50
2023-01-11T07:49:48.044Z,9.80
2023-01-11T07:59:53.245Z,10.40
2023-01-11T08:09:57.015Z,10.60
2023-01-11T08:20:02.112Z,10.70
2023-01-11T08:30:06.685Z,11.00
2023-01-11T08:40:14.001Z,11.30
2023-01-11T08:50:18.779Z,11.70
2023-01-11T09:00:24.731Z,11.60
2023-01-11T09:10:28.834Z,11.50
2023-01-11T09:20:34.440Z,11.50
2023-01-11T09:30:39.420Z,11.80
2023-01-11T09:40:56.040Z,12.30
2023-01-11T09:51:01.930Z,12.70
2023-01-11T10:01:15.742Z,12.60
2023-01-11T10:22:01.749Z,13.50
2023-01-11T10:32:19.027Z,14.40
2023-01-11T10:42:26.539Z,15.00
2023-01-11T10:52:37.236Z,15.60
2023-01-11T11:03:14.018Z,15.40
2023-01-11T11:13:25.127Z,16.10
2023-01-11T11:23:30.639Z,16.00
2023-01-11T11:33:37.308Z,15.90
2023-01-11T11:43:43.208Z,16.20
2023-01-11T11:53:53.573Z,16.20
2023-01-11T12:04:02.423Z,16.70
2023-01-11T12:14:18.659Z,17.50
2023-01-11T12:24:24.979Z,17.60
2023-01-11T12:34:47.626Z,17.70
2023-01-11T12:45:03.857Z,17.60
2023-01-11T12:55:21.055Z,17.10
2023-01-11T13:05:29.437Z,16.70
2023-01-11T13:15:43.351Z,16.70
2023-01-11T13:25:51.081Z,16.60
2023-01-11T13:35:59.596Z,16.20
2023-01-11T13:46:13.248Z,16.00
2023-01-11T13:56:22.173Z,16.30
2023-01-11T14:06:42.337Z,16.70
2023-01-11T14:17:21.668Z,16.70
2023-01-11T14:27:49.321Z,17.30
2023-01-11T14:38:28.180Z,17.10
2023-01-11T14:48:43.270Z,16.60
2023-01-11T14:59:03.865Z,16.50
2023-01-11T15:09:45.272Z,16.40
2023-01-11T15:19:51.806Z,16.20
2023-01-11T15:29:59.513Z,16.20
2023-01-11T15:40:10.439Z,16.00
2023-01-11T15:50:47.040Z,15.80
2023-01-11T16:01:22.230Z,15.20
2023-01-11T16:11:36.974Z,15.00
2023-01-11T16:21:42.903Z,14.90
2023-01-11T16:31:55.840Z,14.60
2023-01-11T16:42:03.534Z,14.50
2023-01-11T16:52:39.288Z,14.30
2023-01-11T17:02:47.466Z,13.90
2023-01-11T17:13:30.036Z,13.60
2023-01-11T17:23:34.506Z,13.40
2023-01-11T17:33:39.757Z,13.20
2023-01-11T17:44:00.211Z,12.80
2023-01-11T17:54:05.569Z,12.60
2023-01-11T18:04:19.526Z,12.70
2023-01-11T18:14:27.831Z,12.30
2023-01-11T18:24:43.870Z,12.20
2023-01-11T18:34:52.281Z,12.10
2023-01-11T18:44:56.096Z,12.10
2023-01-11T18:55:01.181Z,11.60
2023-01-11T19:05:05.153Z,11.50
2023-01-11T19:15:11.266Z,11.20
2023-01-11T19:25:15.011Z,11.10
2023-01-11T19:35:20.594Z,10.70
2023-01-11T19:45:24.391Z,10.50
2023-01-11T19:55:29.522Z,10.40
2023-01-11T20:05:33.692Z,10.10
2023-01-11T20:15:40.035Z,10.30
2023-01-11T20:25:44.366Z,10.50
2023-01-11T20:35:49.827Z,10.20
2023-01-11T20:45:57.704Z,10.30
2023-01-11T20:56:05.966Z,10.60
2023-01-11T21:06:10.934Z,10.70
2023-01-11T21:16:17.799Z,10.70
2023-01-11T21:26:21.683Z,10.50
2023-01-11T21:36:28.196Z,10.30
2023-01-11T21:46:32.431Z,10.40
2023-01-11T21:56:38.367Z,10.10
2023-01-11T22:06:43.458Z,9.70
2023-01-11T22:16:48.914Z,9.90
2023-01-11T22:26:52.800Z,9.80
2023-01-11T22:36:59.156Z,10.30
2023-01-11T22:47:03.036Z,10.10
2023-01-11T22:57:08.210Z,9.50
2023-01-11T23:07:12.174Z,9.40
2023-01-11T23:17:19.189Z,9.30
2023-01-11T23:27:23.343Z,9.30
2023-01-11T23:37:28.367Z,9.20
2023-01-11T23:47:32.193Z,9.10
2023-01-11T23:57:37.762Z,8.80
